Time;durP1;ratioP1;P1;durP2;ratioP2;P2;SDS_P1;SDS_P2;PMS_P1;PMS_P2;Temp;Humidity;BMP_temperature;BMP_pressure;BME280_temperature;BME280_humidity;BME280_pressure;Samples;Min_cycle;Max_cycle;Signal;HPM_P1;HPM_P2
2023/07/27 00:01:40;;;;;;;17.10;13.20;;;10.20;99.90;;;;;;5075277;28;20224;-74
2023/07/27 00:04:07;;;;;;;15.53;13.80;;;10.20;99.90;;;;;;5075492;28;20209;-75
2023/07/27 00:06:34;;;;;;;15.30;13.70;;;10.10;99.90;;;;;;5075332;28;20205;-74
2023/07/27 00:09:01;;;;;;;17.47;14.47;;;10.10;99.90;;;;;;5075187;28;20197;-74
2023/07/27 00:11:28;;;;;;;19.80;15.43;;;10.10;99.90;;;;;;5075120;28;20288;-74
2023/07/27 00:13:54;;;;;;;18.77;14.53;;;10.10;99.90;;;;;;5075736;28;20197;-74
2023/07/27 00:16:21;;;;;;;16.07;14.30;;;10.10;99.90;;;;;;5074818;28;20193;-74
2023/07/27 00:18:49;;;;;;;16.57;14.17;;;10.10;99.90;;;;;;5075256;28;20293;-74
2023/07/27 00:21:15;;;;;;;17.40;14.20;;;10.10;99.90;;;;;;5074719;28;20684;-75
2023/07/27 00:23:42;;;;;;;16.83;14.33;;;10.10;99.90;;;;;;5074864;28;20193;-74
2023/07/27 00:26:09;;;;;;;17.20;14.73;;;10.10;99.90;;;;;;5074890;28;20201;-74
2023/07/27 00:28:35;;;;;;;19.50;15.13;;;10.10;99.90;;;;;;5074255;28;20656;-74
2023/07/27 00:31:02;;;;;;;19.13;15.10;;;10.20;99.90;;;;;;5074439;28;20200;-74
2023/07/27 00:33:28;;;;;;;19.47;15.43;;;10.10;99.90;;;;;;5074382;28;20201;-74
2023/07/27 00:35:57;;;;;;;21.70;16.20;;;10.10;99.90;;;;;;5074841;28;20201;-74
2023/07/27 00:38:23;;;;;;;19.43;15.80;;;10.10;99.90;;;;;;5074465;28;20201;-74
2023/07/27 00:40:50;;;;;;;21.57;16.27;;;10.10;99.90;;;;;;5074362;28;20201;-75
2023/07/27 00:43:17;;;;;;;19.03;16.33;;;10.10;99.90;;;;;;5074243;28;20251;-75
2023/07/27 00:45:44;;;;;;;17.20;15.40;;;10.10;99.90;;;;;;5073818;28;20198;-75
2023/07/27 00:48:10;;;;;;;20.00;16.17;;;10.10;99.90;;;;;;5074126;28;20201;-74
2023/07/27 00:50:38;;;;;;;20.00;15.13;;;10.00;99.90;;;;;;5074382;28;20200;-74
2023/07/27 00:53:07;;;;;;;19.57;15.93;;;10.00;99.90;;;;;;5074091;28;20243;-74
2023/07/27 00:55:35;;;;;;;19.57;16.03;;;10.00;99.90;;;;;;5074197;28;20600;-75
2023/07/27 00:58:02;;;;;;;20.07;15.77;;;10.00;99.90;;;;;;5073787;28;20228;-74
2023/07/27 01:00:30;;;;;;;17.87;14.83;;;9.90;99.90;;;;;;5073999;28;20596;-75
2023/07/27 01:02:56;;;;;;;19.27;15.47;;;9.80;99.90;;;;;;5074030;28;20682;-73
2023/07/27 01:05:24;;;;;;;17.83;15.67;;;9.80;99.90;;;;;;5073768;28;20645;-74
2023/07/27 01:07:50;;;;;;;20.93;15.90;;;9.80;99.90;;;;;;5073588;28;20192;-73
2023/07/27 01:10:21;;;;;;;18.80;15.13;;;9.80;99.90;;;;;;5073836;28;20247;-74
2023/07/27 01:12:50;;;;;;;18.47;15.63;;;9.80;99.90;;;;;;5073718;28;20209;-73
2023/07/27 01:15:22;;;;;;;17.43;15.27;;;9.80;99.90;;;;;;5073884;28;20201;-74
2023/07/27 01:17:53;;;;;;;17.20;15.30;;;9.70;99.90;;;;;;5073831;28;20201;-73
2023/07/27 01:20:27;;;;;;;18.23;14.87;;;9.70;99.90;;;;;;5074014;28;20627;-74
2023/07/27 01:23:28;;;;;;;20.13;15.47;;;9.60;99.90;;;;;;5073434;28;20217;-75
2023/07/27 01:26:17;;;;;;;17.60;14.77;;;9.50;99.90;;;;;;5073413;28;20200;-74
2023/07/27 01:29:00;;;;;;;18.17;14.60;;;9.50;99.90;;;;;;5073476;28;20258;-75
2023/07/27 01:31:32;;;;;;;20.57;16.47;;;9.50;99.90;;;;;;5073264;28;20204;-75
2023/07/27 01:34:02;;;;;;;19.83;14.93;;;9.50;99.90;;;;;;5073660;28;20306;-74
2023/07/27 01:36:34;;;;;;;19.80;14.70;;;9.40;99.90;;;;;;5073390;28;20201;-74
2023/07/27 01:39:04;;;;;;;21.70;15.60;;;9.40;99.90;;;;;;5073295;28;20200;-74
2023/07/27 01:41:32;;;;;;;18.57;15.10;;;9.40;99.90;;;;;;5073107;28;20224;-74
2023/07/27 01:44:01;;;;;;;19.57;16.27;;;9.40;99.90;;;;;;5073187;28;20197;-73
2023/07/27 01:46:30;;;;;;;22.13;16.40;;;9.50;99.90;;;;;;5072953;28;20251;-74
2023/07/27 01:49:00;;;;;;;21.20;15.83;;;9.50;99.90;;;;;;5073241;28;20196;-75
2023/07/27 01:51:27;;;;;;;18.27;14.77;;;9.50;99.90;;;;;;5073023;28;20273;-74
2023/07/27 01:53:55;;;;;;;19.23;15.77;;;9.40;99.90;;;;;;5073044;28;20196;-73
2023/07/27 01:56:22;;;;;;;19.80;16.27;;;9.30;99.90;;;;;;5072794;28;20325;-74
2023/07/27 01:58:51;;;;;;;19.13;15.43;;;9.40;99.90;;;;;;5072996;28;20259;-74
2023/07/27 02:01:18;;;;;;;20.93;15.97;;;9.40;99.90;;;;;;5072823;28;20679;-74
2023/07/27 02:03:47;;;;;;;20.30;16.77;;;9.50;99.90;;;;;;5073001;28;20197;-74
2023/07/27 02:06:13;;;;;;;20.97;15.93;;;9.40;99.90;;;;;;5072875;28;20197;-74
2023/07/27 02:08:40;;;;;;;23.17;16.57;;;9.30;99.90;;;;;;5072780;28;20212;-74
2023/07/27 02:11:09;;;;;;;22.37;15.97;;;9.40;99.90;;;;;;5072706;28;20709;-74
2023/07/27 02:13:42;;;;;;;19.03;15.47;;;9.40;99.90;;;;;;5072866;28;20201;-75
2023/07/27 02:16:14;;;;;;;20.30;16.30;;;9.40;99.90;;;;;;5072753;28;20558;-74
2023/07/27 02:18:43;;;;;;;20.57;16.67;;;9.50;99.90;;;;;;5072798;28;20208;-74
2023/07/27 02:21:12;;;;;;;23.13;16.57;;;9.40;99.90;;;;;;5072746;28;20228;-74
2023/07/27 02:23:39;;;;;;;22.17;15.63;;;9.40;99.90;;;;;;5072561;28;20290;-75
2023/07/27 02:26:06;;;;;;;21.30;16.47;;;9.30;99.90;;;;;;5072877;28;20251;-74
2023/07/27 02:28:34;;;;;;;18.90;14.90;;;9.30;99.90;;;;;;5072727;28;20334;-75
2023/07/27 02:31:01;;;;;;;19.53;15.77;;;9.40;99.90;;;;;;5072642;28;20205;-74
2023/07/27 02:33:27;;;;;;;24.40;16.30;;;9.40;99.90;;;;;;5072553;28;20201;-74
2023/07/27 02:35:55;;;;;;;19.70;16.03;;;9.40;99.90;;;;;;5072492;28;20201;-73
2023/07/27 02:38:23;;;;;;;21.90;16.53;;;9.30;99.90;;;;;;5072719;28;20565;-74
2023/07/27 02:40:50;;;;;;;19.53;15.37;;;9.20;99.90;;;;;;5072591;28;20232;-74
2023/07/27 02:43:18;;;;;;;19.80;15.77;;;9.30;99.90;;;;;;5072327;28;20221;-73
2023/07/27 02:45:44;;;;;;;21.33;16.83;;;9.30;99.90;;;;;;5072477;28;20257;-74
2023/07/27 02:48:11;;;;;;;23.67;15.90;;;9.30;99.90;;;;;;5072472;28;20201;-73
2023/07/27 02:50:37;;;;;;;20.93;15.73;;;9.30;99.90;;;;;;5072348;28;20649;-74
2023/07/27 02:53:04;;;;;;;28.63;15.37;;;9.30;99.90;;;;;;5072702;28;20201;-74
2023/07/27 02:55:32;;;;;;;22.20;16.27;;;9.40;99.90;;;;;;5072694;28;20232;-74
2023/07/27 02:57:59;;;;;;;18.53;14.80;;;9.40;99.90;;;;;;5072392;28;20233;-74
2023/07/27 03:00:25;;;;;;;21.33;16.10;;;9.40;99.90;;;;;;5072065;28;20649;-75
2023/07/27 03:02:52;;;;;;;21.50;17.07;;;9.50;99.90;;;;;;5072256;28;20225;-74
2023/07/27 03:05:19;;;;;;;19.73;16.30;;;9.50;99.90;;;;;;5072192;28;20239;-74
2023/07/27 03:07:45;;;;;;;26.43;18.87;;;9.50;99.90;;;;;;5072152;28;20675;-74
2023/07/27 03:10:12;;;;;;;23.10;17.00;;;9.50;99.90;;;;;;5074061;28;20342;-74
2023/07/27 03:12:40;;;;;;;19.73;15.37;;;9.60;99.90;;;;;;5075919;28;20731;-74
2023/07/27 03:15:07;;;;;;;20.23;15.87;;;9.70;99.90;;;;;;5076097;28;20197;-74
2023/07/27 03:17:34;;;;;;;19.37;14.73;;;9.80;99.90;;;;;;5075919;28;20266;-74
2023/07/27 03:20:00;;;;;;;18.50;14.53;;;9.80;99.90;;;;;;5075476;28;20830;-74
2023/07/27 03:22:28;;;;;;;19.77;15.03;;;9.80;99.90;;;;;;5075917;28;20221;-75
2023/07/27 03:24:55;;;;;;;20.60;14.50;;;9.80;99.90;;;;;;5075708;28;20721;-74
2023/07/27 03:27:21;;;;;;;19.53;14.60;;;9.90;99.90;;;;;;5075785;28;20251;-74
2023/07/27 03:29:49;;;;;;;17.73;14.00;;;9.90;99.90;;;;;;5075812;28;20201;-74
2023/07/27 03:32:16;;;;;;;19.10;15.37;;;10.00;99.90;;;;;;5075497;28;20806;-74
2023/07/27 03:34:42;;;;;;;16.60;13.73;;;10.00;99.90;;;;;;5075793;28;20250;-74
2023/07/27 03:37:09;;;;;;;17.20;14.00;;;10.10;99.90;;;;;;5075618;28;20200;-74
2023/07/27 03:39:36;;;;;;;18.73;13.40;;;10.10;99.90;;;;;;5075647;28;20201;-73
2023/07/27 03:42:02;;;;;;;18.40;13.90;;;10.20;99.90;;;;;;5075430;28;20258;-75
2023/07/27 03:44:29;;;;;;;17.47;13.57;;;10.20;99.90;;;;;;5075642;28;20283;-74
2023/07/27 03:46:57;;;;;;;19.63;13.67;;;10.10;99.90;;;;;;5075324;28;20201;-73
2023/07/27 03:49:23;;;;;;;16.43;13.23;;;10.10;99.90;;;;;;5075277;28;20201;-74
2023/07/27 03:51:50;;;;;;;18.27;13.97;;;10.30;99.90;;;;;;5075383;28;20665;-73
2023/07/27 03:54:17;;;;;;;16.87;13.63;;;10.30;99.90;;;;;;5075385;28;20250;-74
2023/07/27 03:56:43;;;;;;;15.67;13.20;;;10.30;99.90;;;;;;5075130;28;20225;-74
2023/07/27 03:59:10;;;;;;;18.37;13.43;;;10.50;99.90;;;;;;5075374;28;20205;-75
2023/07/27 04:01:36;;;;;;;17.13;13.83;;;10.60;99.90;;;;;;5075076;28;20194;-74
2023/07/27 04:04:05;;;;;;;15.13;11.77;;;10.60;99.90;;;;;;5075199;28;20232;-75
2023/07/27 04:06:31;;;;;;;17.67;13.10;;;10.70;99.90;;;;;;5075238;28;20204;-74
2023/07/27 04:08:58;;;;;;;17.43;12.87;;;10.80;99.90;;;;;;5075074;28;20197;-74
2023/07/27 04:11:24;;;;;;;13.00;11.47;;;10.80;99.90;;;;;;5075029;28;20193;-74
2023/07/27 04:13:51;;;;;;;15.77;12.37;;;10.90;99.90;;;;;;5074815;28;20270;-74
2023/07/27 04:16:18;;;;;;;14.93;13.00;;;10.90;99.90;;;;;;5075000;28;20197;-74
2023/07/27 04:18:44;;;;;;;16.20;11.80;;;11.00;99.90;;;;;;5074982;28;20251;-74
2023/07/27 04:21:12;;;;;;;14.73;12.40;;;11.10;99.90;;;;;;5073747;28;20197;-74
2023/07/27 04:23:39;;;;;;;14.10;12.17;;;11.20;99.90;;;;;;5074693;28;20233;-74
2023/07/27 04:26:05;;;;;;;13.30;11.17;;;11.30;99.90;;;;;;5074681;28;20250;-73
2023/07/27 04:28:32;;;;;;;14.10;11.17;;;11.40;99.90;;;;;;5074654;28;20254;-74
2023/07/27 04:30:59;;;;;;;13.30;10.97;;;11.50;99.90;;;;;;5075098;28;20254;-74
2023/07/27 04:33:25;;;;;;;15.70;10.23;;;11.60;99.90;;;;;;5074745;28;20201;-75
2023/07/27 04:35:52;;;;;;;12.23;10.03;;;11.70;99.90;;;;;;5074770;28;20251;-75
2023/07/27 04:38:20;;;;;;;10.73;9.63;;;11.70;99.90;;;;;;5077874;28;20197;-75
2023/07/27 04:40:46;;;;;;;10.33;9.20;;;11.90;99.90;;;;;;5076943;28;20722;-74
2023/07/27 04:43:13;;;;;;;11.20;8.70;;;12.00;99.90;;;;;;5074313;28;20220;-75
2023/07/27 04:45:40;;;;;;;10.67;8.97;;;12.10;99.90;;;;;;5074717;28;20197;-76
2023/07/27 04:48:07;;;;;;;10.03;9.03;;;12.10;99.90;;;;;;5074385;28;20201;-75
2023/07/27 04:50:34;;;;;;;9.03;7.77;;;12.20;99.90;;;;;;5074083;28;20649;-75
2023/07/27 04:53:00;;;;;;;9.97;7.47;;;12.20;99.90;;;;;;5074109;28;20201;-75
2023/07/27 04:55:28;;;;;;;10.27;9.10;;;12.20;99.90;;;;;;5074210;28;20197;-75
2023/07/27 04:57:55;;;;;;;10.50;7.70;;;12.30;99.90;;;;;;5073781;28;20302;-76
2023/07/27 05:00:22;;;;;;;7.83;6.63;;;12.40;99.90;;;;;;5073949;28;20212;-75
2023/07/27 05:02:49;;;;;;;7.43;6.67;;;12.40;99.90;;;;;;5073961;28;20228;-74
2023/07/27 05:05:15;;;;;;;7.40;6.70;;;12.50;99.90;;;;;;5074048;28;20198;-75
2023/07/27 05:07:42;;;;;;;8.67;6.77;;;12.50;99.90;;;;;;5073884;28;20201;-75
2023/07/27 05:10:09;;;;;;;7.87;7.00;;;12.60;99.90;;;;;;5073791;28;20196;-75
2023/07/27 05:12:36;;;;;;;8.07;6.30;;;12.70;99.90;;;;;;5073849;28;20258;-75
2023/07/27 05:15:04;;;;;;;7.77;6.73;;;12.70;99.90;;;;;;5073754;28;20194;-75
2023/07/27 05:17:30;;;;;;;7.67;6.87;;;12.70;99.90;;;;;;5073672;28;20193;-75
2023/07/27 05:19:57;;;;;;;7.20;6.20;;;12.80;99.90;;;;;;5073644;28;20676;-75
2023/07/27 05:22:23;;;;;;;8.13;6.90;;;12.90;99.90;;;;;;5073460;28;20243;-75
2023/07/27 05:24:50;;;;;;;8.97;6.70;;;13.00;99.90;;;;;;5073580;28;20227;-75
2023/07/27 05:27:17;;;;;;;9.13;6.30;;;13.00;99.90;;;;;;5073562;28;20193;-75
2023/07/27 05:29:45;;;;;;;8.63;6.53;;;13.10;99.90;;;;;;5073510;28;20722;-75
2023/07/27 05:32:11;;;;;;;8.37;6.50;;;13.10;99.90;;;;;;5073203;28;20606;-75
2023/07/27 05:34:38;;;;;;;9.27;6.03;;;13.10;99.90;;;;;;5073308;28;20209;-75
2023/07/27 05:37:05;;;;;;;7.47;6.43;;;13.20;99.90;;;;;;5073266;28;20204;-75
2023/07/27 05:39:31;;;;;;;7.53;6.13;;;13.30;99.90;;;;;;5073177;28;20205;-76
2023/07/27 05:41:58;;;;;;;6.90;6.20;;;13.30;99.90;;;;;;5073245;28;20649;-75
2023/07/27 05:44:25;;;;;;;11.47;6.73;;;13.40;99.90;;;;;;5073082;28;20224;-75
2023/07/27 05:46:56;;;;;;;8.43;6.40;;;13.50;99.90;;;;;;5073020;28;20197;-75
2023/07/27 05:49:22;;;;;;;6.93;5.87;;;13.50;99.90;;;;;;5072867;28;20736;-75
2023/07/27 05:51:49;;;;;;;8.57;5.93;;;13.60;99.90;;;;;;5072925;28;20201;-75
2023/07/27 05:54:15;;;;;;;7.83;6.03;;;13.70;99.90;;;;;;5073199;28;20608;-75
2023/07/27 05:56:42;;;;;;;6.30;5.70;;;13.70;99.90;;;;;;5072709;28;20233;-75
2023/07/27 05:59:09;;;;;;;6.90;5.77;;;13.80;99.90;;;;;;5073043;28;20255;-74
2023/07/27 06:01:35;;;;;;;6.37;5.27;;;13.80;99.90;;;;;;5073023;28;20197;-74
2023/07/27 06:04:03;;;;;;;6.13;5.47;;;13.80;99.90;;;;;;5072733;28;20291;-74
2023/07/27 06:06:30;;;;;;;6.03;5.13;;;13.90;99.90;;;;;;5072686;28;20192;-74
2023/07/27 06:08:57;;;;;;;7.13;5.57;;;13.90;99.90;;;;;;5072939;28;20284;-74
2023/07/27 06:11:24;;;;;;;5.60;5.00;;;13.90;99.90;;;;;;5072873;28;20192;-75
2023/07/27 06:13:50;;;;;;;6.70;5.67;;;14.00;99.90;;;;;;5073017;28;20203;-75
2023/07/27 06:16:17;;;;;;;7.93;5.30;;;14.10;99.90;;;;;;5072733;28;20290;-75
2023/07/27 06:18:44;;;;;;;5.00;4.47;;;14.30;99.90;;;;;;5072547;28;20226;-75
2023/07/27 06:21:12;;;;;;;7.10;5.07;;;14.40;99.90;;;;;;5072736;28;20254;-75
2023/07/27 06:23:38;;;;;;;6.03;5.10;;;14.50;99.90;;;;;;5072950;28;20761;-75
2023/07/27 06:26:05;;;;;;;7.37;5.13;;;14.80;99.90;;;;;;5073091;28;20204;-76
2023/07/27 06:28:31;;;;;;;8.30;4.80;;;15.00;99.90;;;;;;5072935;28;20251;-75
2023/07/27 06:30:58;;;;;;;6.50;4.60;;;15.30;99.90;;;;;;5072699;28;20262;-76
2023/07/27 06:33:24;;;;;;;4.97;4.40;;;15.40;99.90;;;;;;5072894;28;20200;-75
2023/07/27 06:35:52;;;;;;;4.97;4.30;;;15.60;99.90;;;;;;5072614;28;20726;-75
2023/07/27 06:38:20;;;;;;;4.63;4.07;;;15.90;99.90;;;;;;5072939;28;20197;-75
2023/07/27 06:40:46;;;;;;;4.63;4.13;;;15.90;99.90;;;;;;5072590;28;20646;-75
2023/07/27 06:43:13;;;;;;;5.30;3.97;;;16.20;99.90;;;;;;5072642;28;20213;-76
2023/07/27 06:45:40;;;;;;;5.85;3.67;;;16.40;99.90;;;;;;5075285;28;20231;-75
2023/07/27 06:48:07;;;;;;;3.92;3.53;;;16.40;99.90;;;;;;5076680;28;20738;-76
2023/07/27 06:50:34;;;;;;;4.78;3.40;;;16.40;99.90;;;;;;5077060;28;20299;-75
2023/07/27 06:53:00;;;;;;;6.13;3.60;;;16.50;99.90;;;;;;5077055;28;20610;-76
2023/07/27 06:55:28;;;;;;;4.80;3.45;;;16.40;99.90;;;;;;5076211;28;20579;-75
2023/07/27 06:57:56;;;;;;;6.45;3.85;;;16.70;99.90;;;;;;5076081;28;20324;-76
2023/07/27 07:00:23;;;;;;;3.97;3.22;;;16.70;99.90;;;;;;5076280;28;20269;-76
2023/07/27 07:02:50;;;;;;;4.45;3.55;;;16.60;99.90;;;;;;5075971;28;20201;-75
2023/07/27 07:05:16;;;;;;;3.85;3.33;;;16.50;99.90;;;;;;5076276;28;20197;-75
2023/07/27 07:07:43;;;;;;;4.25;3.28;;;16.30;99.90;;;;;;5076487;28;20193;-75
2023/07/27 07:10:11;;;;;;;4.68;4.10;;;16.30;99.90;;;;;;5076330;28;20648;-75
2023/07/27 07:12:39;;;;;;;4.13;3.63;;;16.20;99.90;;;;;;5076346;28;20204;-75
2023/07/27 07:15:07;;;;;;;4.03;3.63;;;16.00;99.90;;;;;;5076129;28;20197;-75
2023/07/27 07:17:33;;;;;;;4.87;3.83;;;15.90;99.90;;;;;;5076121;28;20205;-76
2023/07/27 07:20:00;;;;;;;5.33;3.63;;;15.90;99.90;;;;;;5076307;28;20197;-76
2023/07/27 07:22:27;;;;;;;4.40;4.00;;;15.90;99.90;;;;;;5076162;28;20202;-75
2023/07/27 07:24:53;;;;;;;4.97;3.97;;;15.90;99.90;;;;;;5075977;28;20225;-75
2023/07/27 07:27:20;;;;;;;5.13;3.60;;;15.80;99.90;;;;;;5075764;28;20242;-76
2023/07/27 07:29:48;;;;;;;3.90;3.57;;;15.70;99.90;;;;;;5075689;28;20197;-76
2023/07/27 07:32:14;;;;;;;5.17;4.03;;;15.70;99.90;;;;;;5075848;28;20197;-76
2023/07/27 07:34:41;;;;;;;5.20;4.33;;;15.90;99.90;;;;;;5075787;28;20649;-76
2023/07/27 07:37:08;;;;;;;4.67;4.10;;;15.80;99.90;;;;;;5075773;28;20197;-76
2023/07/27 07:39:35;;;;;;;5.67;4.23;;;15.90;99.90;;;;;;5075357;28;20208;-76
2023/07/27 07:42:01;;;;;;;4.43;4.03;;;16.00;99.90;;;;;;5075625;28;20279;-76
2023/07/27 07:44:29;;;;;;;4.30;3.83;;;16.20;99.90;;;;;;5076092;28;20216;-76
2023/07/27 07:46:57;;;;;;;5.50;4.13;;;16.30;99.90;;;;;;5076345;28;20197;-76
2023/07/27 07:49:25;;;;;;;5.53;3.70;;;16.30;99.90;;;;;;5077092;28;20255;-76
2023/07/27 07:51:52;;;;;;;4.10;3.80;;;16.50;99.90;;;;;;5075992;28;20258;-76
2023/07/27 07:54:19;;;;;;;4.83;3.97;;;16.80;99.90;;;;;;5075540;28;20219;-76
2023/07/27 07:56:47;;;;;;;5.63;4.07;;;16.90;99.90;;;;;;5075403;28;20278;-76
2023/07/27 07:59:14;;;;;;;4.55;3.88;;;17.00;99.90;;;;;;5075886;28;20201;-76
2023/07/27 08:01:40;;;;;;;4.75;3.70;;;17.20;99.90;;;;;;5075688;28;20242;-76
2023/07/27 08:04:08;;;;;;;4.20;3.80;;;17.00;99.90;;;;;;5075358;28;20229;-76
2023/07/27 08:06:35;;;;;;;4.72;3.75;;;17.20;99.90;;;;;;5075642;28;20201;-76
2023/07/27 08:09:02;;;;;;;5.28;4.22;;;16.90;99.90;;;;;;5075503;28;20665;-77
2023/07/27 08:11:29;;;;;;;5.97;3.72;;;16.90;99.90;;;;;;5076023;28;20204;-75
2023/07/27 08:13:58;;;;;;;5.15;3.95;;;17.10;99.90;;;;;;5074940;28;20196;-76
2023/07/27 08:16:25;;;;;;;5.35;3.65;;;16.80;99.90;;;;;;5075258;28;20215;-76
2023/07/27 08:18:52;;;;;;;5.03;3.60;;;17.00;99.90;;;;;;5075267;28;20285;-75
2023/07/27 08:21:20;;;;;;;4.38;3.55;;;17.00;99.90;;;;;;5075054;28;20193;-76
2023/07/27 08:23:47;;;;;;;6.40;3.78;;;17.10;99.90;;;;;;5074931;28;20235;-75
2023/07/27 08:26:14;;;;;;;6.38;3.80;;;17.20;99.90;;;;;;5075118;28;20258;-76
2023/07/27 08:28:41;;;;;;;5.78;3.83;;;17.60;99.90;;;;;;5075203;28;20197;-76
2023/07/27 08:31:08;;;;;;;7.93;3.67;;;17.80;99.90;;;;;;5074862;28;20207;-75
2023/07/27 08:33:35;;;;;;;11.85;4.13;;;17.90;99.90;;;;;;5072685;28;20212;-77
2023/07/27 08:36:02;;;;;;;3.85;3.45;;;18.00;99.90;;;;;;5074098;28;20193;-76
2023/07/27 08:38:30;;;;;;;4.00;3.30;;;18.30;99.90;;;;;;5074040;28;20198;-76
2023/07/27 08:40:57;;;;;;;5.10;4.03;;;18.60;99.90;;;;;;5074571;28;20537;-76
2023/07/27 08:43:24;;;;;;;5.00;3.10;;;18.70;99.90;;;;;;5074416;28;20200;-77
2023/07/27 08:45:52;;;;;;;5.25;3.40;;;18.90;99.90;;;;;;5074485;28;20197;-78
2023/07/27 08:48:18;;;;;;;6.18;3.22;;;18.90;99.90;;;;;;5074196;28;20243;-77
2023/07/27 08:50:47;;;;;;;5.82;3.40;;;18.90;99.90;;;;;;5074649;28;20197;-77
2023/07/27 08:53:15;;;;;;;4.57;3.17;;;18.90;99.90;;;;;;5074521;28;20649;-76
2023/07/27 08:55:43;;;;;;;6.13;3.22;;;19.00;99.90;;;;;;5054863;28;20241;-76
2023/07/27 08:58:11;;;;;;;6.40;3.60;;;19.10;99.90;;;;;;5054213;28;20703;-76
2023/07/27 09:00:38;;;;;;;4.10;3.33;;;18.90;99.90;;;;;;5073707;28;20656;-75
2023/07/27 09:03:07;;;;;;;3.40;3.10;;;19.10;99.90;;;;;;5074211;28;20197;-76
2023/07/27 09:05:40;;;;;;;3.75;3.40;;;19.30;99.90;;;;;;5073623;28;20224;-75
2023/07/27 09:08:08;;;;;;;3.92;3.22;;;19.50;99.90;;;;;;5073473;28;20197;-76
2023/07/27 09:10:35;;;;;;;4.50;3.55;;;19.50;99.90;;;;;;5073919;28;20262;-77
2023/07/27 09:13:04;;;;;;;3.88;3.47;;;19.40;99.90;;;;;;5073589;28;20201;-75
2023/07/27 09:15:30;;;;;;;10.07;3.33;;;19.80;99.90;;;;;;5073836;28;20220;-76
2023/07/27 09:18:01;;;;;;;4.07;3.45;;;19.90;99.90;;;;;;5073707;28;20197;-76
2023/07/27 09:20:28;;;;;;;3.67;3.30;;;20.20;99.90;;;;;;5073516;28;20199;-76
2023/07/27 09:22:56;;;;;;;4.30;3.30;;;20.20;99.90;;;;;;5073881;28;20197;-76
2023/07/27 09:25:23;;;;;;;4.65;3.35;;;20.40;99.90;;;;;;5073122;28;20231;-79
2023/07/27 09:27:53;;;;;;;3.83;3.03;;;20.80;99.90;;;;;;5073577;28;20200;-76
2023/07/27 09:30:22;;;;;;;4.55;3.58;;;20.90;99.90;;;;;;5073452;28;20193;-77
2023/07/27 09:32:49;;;;;;;3.63;2.97;;;20.70;99.90;;;;;;5072918;28;20189;-77
2023/07/27 09:35:18;;;;;;;5.53;3.35;;;20.60;99.90;;;;;;5080097;28;20529;-74
2023/07/27 09:37:45;;;;;;;5.13;3.80;;;20.30;99.90;;;;;;5093597;28;20196;-79
2023/07/27 09:40:14;;;;;;;5.88;3.70;;;20.10;99.90;;;;;;5093464;28;20246;-75
2023/07/27 09:42:42;;;;;;;5.82;3.28;;;19.80;99.90;;;;;;5093369;28;20246;-74
2023/07/27 09:45:09;;;;;;;3.42;3.13;;;19.30;99.90;;;;;;5093199;28;20583;-74
2023/07/27 09:47:38;;;;;;;6.18;3.63;;;19.20;99.90;;;;;;5093502;28;20196;-74
2023/07/27 09:50:06;;;;;;;7.38;3.95;;;19.10;99.90;;;;;;5093375;28;20196;-74
2023/07/27 09:52:35;;;;;;;3.95;2.95;;;19.30;99.90;;;;;;5093342;28;20196;-74
2023/07/27 09:55:02;;;;;;;4.35;3.42;;;19.40;99.90;;;;;;5093332;28;20252;-74
2023/07/27 09:57:29;;;;;;;6.32;3.15;;;19.20;99.90;;;;;;5093173;28;20282;-73
2023/07/27 09:59:56;;;;;;;5.85;3.13;;;19.30;99.90;;;;;;5093150;28;20300;-74
2023/07/27 10:02:23;;;;;;;3.70;2.92;;;19.00;99.90;;;;;;5093424;28;20606;-73
2023/07/27 10:04:51;;;;;;;4.07;2.95;;;18.90;99.90;;;;;;5087082;28;20228;-74
2023/07/27 10:07:19;;;;;;;7.43;3.30;;;18.90;99.90;;;;;;5072330;28;20266;-74
2023/07/27 10:09:46;;;;;;;4.75;3.33;;;19.00;99.90;;;;;;5072909;28;20201;-73
2023/07/27 10:12:25;;;;;;;7.93;3.40;;;19.20;99.90;;;;;;5072695;28;20247;-74
2023/07/27 10:15:18;;;;;;;4.00;3.20;;;19.30;99.90;;;;;;5072898;28;20211;-74
2023/07/27 10:17:46;;;;;;;5.35;3.50;;;19.50;99.90;;;;;;5072808;28;20656;-74
2023/07/27 10:20:34;;;;;;;3.80;3.22;;;19.80;99.90;;;;;;5071806;28;20255;-74
2023/07/27 10:23:17;;;;;;;3.72;3.05;;;19.80;99.90;;;;;;5072886;28;20199;-74
2023/07/27 10:26:03;;;;;;;3.88;3.40;;;19.80;99.90;;;;;;5072653;28;20293;-74
2023/07/27 10:28:32;;;;;;;8.05;3.33;;;19.50;99.90;;;;;;5072667;28;20192;-74
2023/07/27 10:31:23;;;;;;;4.30;3.20;;;19.50;99.90;;;;;;5072691;28;20319;-74
2023/07/27 10:33:54;;;;;;;4.28;3.40;;;19.60;99.90;;;;;;5072797;28;20207;-74
2023/07/27 10:36:23;;;;;;;4.65;3.33;;;19.50;99.90;;;;;;5072689;28;20200;-74
2023/07/27 10:38:52;;;;;;;3.70;2.92;;;19.20;99.90;;;;;;5072678;28;20236;-74
2023/07/27 10:41:22;;;;;;;3.40;3.00;;;19.00;99.90;;;;;;5072470;28;20657;-74
2023/07/27 10:44:17;;;;;;;3.72;3.20;;;18.80;99.90;;;;;;5072441;28;20751;-74
2023/07/27 10:46:48;;;;;;;4.57;3.55;;;18.60;99.90;;;;;;5072670;28;20201;-74
2023/07/27 10:49:16;;;;;;;5.47;3.85;;;18.30;99.90;;;;;;5072555;28;20207;-76
2023/07/27 10:51:45;;;;;;;5.13;4.13;;;17.30;99.90;;;;;;5072453;28;20197;-76
2023/07/27 10:54:13;;;;;;;8.57;5.13;;;16.60;99.90;;;;;;5072697;28;20209;-74
2023/07/27 10:56:41;;;;;;;5.50;5.00;;;15.90;99.90;;;;;;5072335;28;20236;-73
2023/07/27 10:59:12;;;;;;;6.77;5.57;;;15.60;99.90;;;;;;5072267;28;20228;-73
2023/07/27 11:01:39;;;;;;;9.03;6.10;;;15.40;99.90;;;;;;5072366;28;20200;-74
2023/07/27 11:04:06;;;;;;;6.97;6.27;;;15.50;99.90;;;;;;5072261;28;20262;-73
2023/07/27 11:06:41;;;;;;;7.63;6.23;;;15.50;99.90;;;;;;5072021;28;20658;-73
2023/07/27 11:09:15;;;;;;;8.73;5.93;;;15.60;99.90;;;;;;5072196;28;20196;-73
2023/07/27 11:11:42;;;;;;;9.30;5.97;;;16.00;99.90;;;;;;5072275;28;20203;-73
2023/07/27 11:14:10;;;;;;;6.57;5.47;;;16.30;99.90;;;;;;5072245;28;20201;-72
2023/07/27 11:16:38;;;;;;;6.00;5.40;;;16.40;99.90;;;;;;5072201;28;20197;-73
2023/07/27 11:19:06;;;;;;;5.60;5.10;;;16.50;99.90;;;;;;5072005;28;20200;-73
2023/07/27 11:21:33;;;;;;;7.10;5.00;;;16.20;99.90;;;;;;5072305;28;20262;-73
2023/07/27 11:24:01;;;;;;;8.83;4.80;;;16.00;99.90;;;;;;5072191;28;20246;-73
2023/07/27 11:26:29;;;;;;;6.07;4.50;;;15.70;99.90;;;;;;5072055;28;20225;-73
2023/07/27 11:28:56;;;;;;;7.20;5.53;;;15.60;99.90;;;;;;5072084;28;20275;-74
2023/07/27 11:31:23;;;;;;;7.93;5.70;;;15.40;99.90;;;;;;5074268;28;20201;-73
2023/07/27 11:33:49;;;;;;;7.10;5.43;;;15.30;99.90;;;;;;5076182;28;20223;-74
2023/07/27 11:36:16;;;;;;;10.13;6.50;;;15.30;99.90;;;;;;5075835;28;20204;-74
2023/07/27 11:38:42;;;;;;;9.33;6.03;;;15.20;99.90;;;;;;5075832;28;20718;-74
2023/07/27 11:41:09;;;;;;;6.47;5.87;;;15.10;99.90;;;;;;5075666;28;20219;-75
2023/07/27 11:43:38;;;;;;;7.10;6.40;;;14.90;99.90;;;;;;5076089;28;20239;-75
2023/07/27 11:46:05;;;;;;;9.23;6.87;;;15.00;99.90;;;;;;5075727;28;20228;-75
2023/07/27 11:48:33;;;;;;;9.40;6.50;;;15.00;99.90;;;;;;5076092;28;20197;-77
2023/07/27 11:51:01;;;;;;;7.80;7.00;;;14.90;99.90;;;;;;5076047;28;20193;-77
2023/07/27 11:53:28;;;;;;;8.83;7.23;;;14.90;99.90;;;;;;5075982;28;20258;-76
2023/07/27 11:55:55;;;;;;;8.90;7.97;;;15.00;99.90;;;;;;5076056;28;20204;-77
2023/07/27 11:58:27;;;;;;;8.13;7.30;;;15.20;99.90;;;;;;5075786;28;20229;-77
2023/07/27 12:00:56;;;;;;;8.73;7.23;;;15.30;99.90;;;;;;5076256;28;20207;-77
2023/07/27 12:03:25;;;;;;;8.00;7.20;;;15.30;99.90;;;;;;5075841;28;20197;-77
2023/07/27 12:05:53;;;;;;;10.33;7.90;;;15.40;99.90;;;;;;5075636;28;20311;-77
2023/07/27 12:08:21;;;;;;;8.57;7.67;;;15.50;99.90;;;;;;5075604;28;20530;-76
2023/07/27 12:10:51;;;;;;;8.23;7.50;;;15.60;99.90;;;;;;5075611;28;20278;-76
2023/07/27 12:13:21;;;;;;;7.33;6.47;;;15.60;99.90;;;;;;5075366;28;20189;-76
2023/07/27 12:15:55;;;;;;;10.43;6.93;;;15.60;99.90;;;;;;5075704;28;20565;-78
2023/07/27 12:18:25;;;;;;;9.47;6.70;;;15.60;99.90;;;;;;5075601;28;20201;-77
2023/07/27 12:20:52;;;;;;;8.40;7.23;;;15.80;99.90;;;;;;5075898;28;20207;-77
2023/07/27 12:23:18;;;;;;;7.10;6.50;;;16.10;99.90;;;;;;5075701;28;20204;-77
2023/07/27 12:25:45;;;;;;;8.03;6.50;;;16.20;99.90;;;;;;5078184;28;20232;-76
2023/07/27 12:28:12;;;;;;;8.07;6.17;;;16.20;99.90;;;;;;5075662;28;20548;-77
2023/07/27 12:30:38;;;;;;;6.83;6.13;;;16.30;99.90;;;;;;5075212;28;20196;-77
2023/07/27 12:33:06;;;;;;;8.60;5.93;;;16.60;99.90;;;;;;5075284;28;20205;-77
2023/07/27 12:35:33;;;;;;;6.37;5.77;;;16.70;99.90;;;;;;5075560;28;20639;-77
2023/07/27 12:38:00;;;;;;;6.20;5.40;;;16.70;99.90;;;;;;5075559;28;20231;-78
2023/07/27 12:40:27;;;;;;;6.07;5.47;;;16.70;99.90;;;;;;5076047;28;20215;-78
2023/07/27 12:42:55;;;;;;;7.40;5.03;;;16.60;99.90;;;;;;5075155;28;20208;-78
2023/07/27 12:45:22;;;;;;;6.97;5.20;;;16.60;99.90;;;;;;5074642;28;20213;-78